Time;durP1;ratioP1;P1;durP2;ratioP2;P2;SDS_P1;SDS_P2;PMS_P1;PMS_P2;Temp;Humidity;BMP_temperature;BMP_pressure;BME280_temperature;BME280_humidity;BME280_pressure;Samples;Min_cycle;Max_cycle;Signal;HPM_P1;HPM_P2
2022/01/28 00:03:45;;;;;;;;;;;5.70;99.90;;;;;;8376174;28;20023;-72
2022/01/28 00:07:47;;;;;;;;;;;5.70;99.90;;;;;;8388781;28;19932;-71
2022/01/28 00:11:49;;;;;;;;;;;5.70;99.90;;;;;;8382167;28;20034;-72
2022/01/28 00:41:54;;;;;;;;;;;5.70;99.90;;;;;;8384424;28;19972;-71
2022/01/28 00:45:55;;;;;;;;;;;5.60;99.90;;;;;;8392070;28;19924;-71
2022/01/28 00:49:57;;;;;;;;;;;5.50;99.90;;;;;;8387949;28;20329;-71
2022/01/28 00:53:59;;;;;;;;;;;5.40;99.90;;;;;;8390106;28;19932;-72
2022/01/28 00:58:00;;;;;;;;;;;5.30;99.90;;;;;;8387355;28;19940;-72
2022/01/28 01:02:02;;;;;;;;;;;5.30;99.90;;;;;;8379033;28;20293;-72
2022/01/28 01:06:04;;;;;;;;;;;5.30;99.90;;;;;;8391450;28;19928;-72
2022/01/28 01:10:06;;;;;;;;;;;5.30;99.90;;;;;;8392198;28;19924;-71
2022/01/28 01:14:08;;;;;;;;;;;5.40;99.90;;;;;;8391950;28;19925;-72
2022/01/28 01:18:20;;;;;;;;;;;5.50;99.90;;;;;;8395319;28;19932;-71
2022/01/28 01:22:24;;;;;;;;;;;5.60;99.90;;;;;;8387549;28;20248;-72
2022/01/28 01:26:35;;;;;;;;;;;5.60;99.90;;;;;;8380871;28;19924;-72
2022/01/28 01:30:41;;;;;;;;;;;5.70;99.90;;;;;;8385709;28;19939;-72
2022/01/28 01:34:45;;;;;;;;;;;5.70;99.90;;;;;;8396216;28;19932;-72
2022/01/28 01:38:50;;;;;;;;;;;5.70;99.90;;;;;;8389810;28;19969;-72
2022/01/28 01:43:05;;;;;;;;;;;5.60;99.90;;;;;;8371710;28;19928;-72
2022/01/28 01:55:56;;;;;;;;;;;5.70;99.90;;;;;;8386171;28;19925;-71
2022/01/28 02:00:00;;;;;;;;;;;5.80;99.90;;;;;;8372596;28;19925;-72
2022/01/28 02:04:02;;;;;;;;;;;5.80;99.90;;;;;;8376268;28;20001;-72
2022/01/28 02:08:06;;;;;;;;;;;5.80;99.90;;;;;;8389371;28;19978;-71
2022/01/28 02:12:08;;;;;;;;;;;5.80;99.90;;;;;;8390527;28;19924;-72
2022/01/28 02:16:10;;;;;;;;;;;5.80;99.90;;;;;;8391617;28;19925;-72
2022/01/28 02:20:18;;;;;;;;;;;5.80;99.90;;;;;;8386126;28;20277;-72
2022/01/28 02:28:56;;;;;;;;;;;5.90;99.90;;;;;;8383583;28;19928;-72
2022/01/28 02:33:09;;;;;;;;;;;5.80;99.90;;;;;;8374988;28;19925;-71
2022/01/28 02:37:10;;;;;;;;;;;5.90;99.90;;;;;;8376180;28;19932;-72
2022/01/28 02:41:12;;;;;;;;;;;5.90;99.90;;;;;;8389384;28;19925;-71
2022/01/28 02:45:24;;;;;;;;;;;5.90;99.90;;;;;;8386676;28;20376;-71
2022/01/28 02:49:30;;;;;;;;;;;5.90;99.90;;;;;;8373971;28;19925;-71
2022/01/28 02:57:51;;;;;;;;;;;5.90;99.90;;;;;;8390314;28;19925;-71
2022/01/28 03:01:55;;;;;;;;;;;5.90;99.90;;;;;;8380392;28;20292;-71
2022/01/28 03:05:57;;;;;;;;;;;5.90;99.90;;;;;;8388704;28;19924;-72
2022/01/28 03:18:18;;;;;;;;;;;5.90;99.90;;;;;;8385842;28;19931;-71
2022/01/28 03:22:22;;;;;;;;;;;5.90;99.90;;;;;;8385894;28;19929;-71
2022/01/28 03:26:25;;;;;;;;;;;5.90;99.90;;;;;;8388814;28;19924;-71
2022/01/28 03:30:31;;;;;;;;;;;5.90;99.90;;;;;;8383257;28;19944;-72
2022/01/28 03:34:32;;;;;;;;;;;5.90;99.90;;;;;;8393017;28;19924;-72
2022/01/28 03:38:35;;;;;;;;;;;5.80;99.90;;;;;;8383934;28;19947;-71
2022/01/28 03:42:39;;;;;;;;;;;5.80;99.90;;;;;;8385377;28;19924;-72
2022/01/28 03:46:40;;;;;;;;;;;5.80;99.90;;;;;;8368900;28;20414;-72
2022/01/28 03:50:42;;;;;;;;;;;5.70;99.90;;;;;;8388329;28;20383;-72
2022/01/28 03:54:44;;;;;;;;;;;5.70;99.90;;;;;;8390133;28;19924;-72
2022/01/28 03:58:46;;;;;;;;;;;5.60;99.90;;;;;;8389862;28;19939;-72
2022/01/28 04:02:48;;;;;;;;;;;5.60;99.90;;;;;;8387106;28;19924;-72
2022/01/28 04:11:46;;;;;;;;;;;5.50;99.90;;;;;;8380260;28;19939;-72
2022/01/28 04:15:51;;;;;;;;;;;5.50;99.90;;;;;;8386285;28;19924;-72
2022/01/28 04:19:53;;;;;;;;;;;5.40;99.90;;;;;;8369146;28;19933;-71
2022/01/28 04:23:57;;;;;;;;;;;5.30;99.90;;;;;;8369449;28;19925;-71
2022/01/28 04:27:59;;;;;;;;;;;5.20;99.90;;;;;;8392432;28;19924;-72
2022/01/28 04:32:01;;;;;;;;;;;5.20;99.90;;;;;;8384349;28;19924;-71
2022/01/28 04:36:04;;;;;;;;;;;5.20;99.90;;;;;;8377411;28;19931;-72
2022/01/28 04:44:18;;;;;;;;;;;5.10;99.90;;;;;;8393744;28;20399;-72
2022/01/28 04:48:28;;;;;;;;;;;5.00;99.90;;;;;;8389758;28;19936;-72
2022/01/28 05:04:57;;;;;;;;;;;5.10;99.90;;;;;;8389177;28;20015;-71
2022/01/28 05:30:17;;;;;;;;;;;5.10;99.90;;;;;;8389186;28;19925;-72
2022/01/28 05:34:23;;;;;;;;;;;5.00;99.90;;;;;;8397449;28;19929;-72
2022/01/28 05:38:25;;;;;;;;;;;4.90;99.90;;;;;;8369070;28;19948;-72
2022/01/28 05:42:27;;;;;;;;;;;4.90;99.90;;;;;;8385683;28;19948;-71
2022/01/28 05:46:29;;;;;;;;;;;4.80;99.90;;;;;;8375627;28;19928;-71
2022/01/28 05:50:31;;;;;;;;;;;4.70;99.90;;;;;;8387955;28;19932;-71
2022/01/28 05:54:33;;;;;;;;;;;4.60;99.90;;;;;;8370163;28;20334;-71
2022/01/28 05:58:37;;;;;;;;;;;4.60;99.90;;;;;;8370781;28;20392;-72
2022/01/28 06:02:39;;;;;;;;;;;4.50;99.90;;;;;;8382801;28;19936;-72
2022/01/28 06:06:43;;;;;;;;;;;4.40;99.90;;;;;;8389468;28;19955;-72
2022/01/28 06:10:47;;;;;;;;;;;4.40;99.90;;;;;;8375671;28;20384;-71
2022/01/28 06:14:49;;;;;;;;;;;4.30;99.90;;;;;;8389793;28;19925;-71
2022/01/28 06:18:50;;;;;;;;;;;4.30;99.90;;;;;;8381310;28;19929;-72
2022/01/28 06:22:52;;;;;;;;;;;4.30;99.90;;;;;;8391460;28;19939;-72
2022/01/28 06:26:54;;;;;;;;;;;4.30;99.90;;;;;;8389117;28;20372;-72
2022/01/28 06:30:56;;;;;;;;;;;4.20;99.90;;;;;;8394845;28;19924;-72
2022/01/28 06:35:00;;;;;;;;;;;4.20;99.90;;;;;;8356917;28;19939;-71
2022/01/28 06:39:02;;;;;;;;;;;4.20;99.90;;;;;;8370591;28;19929;-72
2022/01/28 06:43:06;;;;;;;;;;;4.10;99.90;;;;;;8390454;28;19930;-72
2022/01/28 06:47:10;;;;;;;;;;;4.10;99.90;;;;;;8378853;28;20284;-71
2022/01/28 06:51:14;;;;;;;;;;;4.00;99.90;;;;;;8392344;28;19928;-72
2022/01/28 06:55:16;;;;;;;;;;;4.00;99.90;;;;;;8394009;28;19974;-72
2022/01/28 06:59:28;;;;;;;;;;;3.90;99.90;;;;;;8392631;28;19924;-71
2022/01/28 07:03:29;;;;;;;;;;;3.90;99.90;;;;;;8386983;28;19955;-71
2022/01/28 07:07:33;;;;;;;;;;;3.80;99.90;;;;;;8395338;28;20280;-71
2022/01/28 07:11:37;;;;;;;;;;;3.80;99.90;;;;;;8368751;28;20347;-72
2022/01/28 07:15:39;;;;;;;;;;;3.80;99.90;;;;;;8377116;28;19924;-72
2022/01/28 07:19:41;;;;;;;;;;;3.80;99.90;;;;;;8374640;28;20813;-71
2022/01/28 07:23:43;;;;;;;;;;;3.80;99.90;;;;;;8386065;28;19936;-72
2022/01/28 07:27:47;;;;;;;;;;;3.80;99.90;;;;;;8389555;28;19932;-72
2022/01/28 07:31:49;;;;;;;;;;;3.80;99.90;;;;;;8386712;28;19925;-71
2022/01/28 07:35:50;;;;;;;;;;;3.80;99.90;;;;;;8381339;28;19924;-71
2022/01/28 07:39:52;;;;;;;;;;;3.80;99.90;;;;;;8390623;28;20612;-71
2022/01/28 07:43:57;;;;;;;;;;;3.80;99.90;;;;;;8387301;28;19937;-71
2022/01/28 07:48:01;;;;;;;;;;;3.80;99.90;;;;;;8371351;28;19924;-71
2022/01/28 07:52:05;;;;;;;;;;;3.80;99.90;;;;;;8368463;28;20312;-71
2022/01/28 07:56:07;;;;;;;;;;;3.80;99.90;;;;;;8379954;28;20284;-71
2022/01/28 08:00:10;;;;;;;;;;;3.80;99.90;;;;;;8381731;28;19924;-71
2022/01/28 08:04:12;;;;;;;;;;;3.80;99.90;;;;;;8366393;28;19952;-71
2022/01/28 08:08:18;;;;;;;;;;;3.70;99.90;;;;;;8365888;28;19924;-72
2022/01/28 08:12:20;;;;;;;;;;;3.60;99.90;;;;;;8386377;28;20391;-72
2022/01/28 08:16:22;;;;;;;;;;;3.60;99.90;;;;;;8400427;28;19932;-72
2022/01/28 08:20:23;;;;;;;;;;;3.60;99.90;;;;;;8388066;28;19935;-71
2022/01/28 08:24:25;;;;;;;;;;;3.70;99.90;;;;;;8389275;28;19932;-71
2022/01/28 08:28:27;;;;;;;;;;;3.90;99.90;;;;;;8373259;28;19933;-71
2022/01/28 08:32:31;;;;;;;;;;;4.10;99.90;;;;;;8389327;28;20004;-71
2022/01/28 08:36:34;;;;;;;;;;;4.20;99.90;;;;;;8375036;28;19928;-71
2022/01/28 08:40:35;;;;;;;;;;;4.30;99.90;;;;;;8370731;28;19967;-72
2022/01/28 08:44:37;;;;;;;;;;;4.40;99.90;;;;;;8384538;28;19925;-72
2022/01/28 08:48:39;;;;;;;;;;;4.40;99.90;;;;;;8387133;28;19966;-72
2022/01/28 08:52:46;;;;;;;;;;;4.40;99.90;;;;;;8386881;28;20379;-71
2022/01/28 08:56:48;;;;;;;;;;;4.50;99.90;;;;;;8389603;28;19924;-72
2022/01/28 09:01:09;;;;;;;;;;;4.60;99.90;;;;;;8384400;28;20007;-72
2022/01/28 09:05:11;;;;;;;;;;;4.70;99.90;;;;;;8391060;28;20003;-71
2022/01/28 09:09:13;;;;;;;;;;;4.90;99.90;;;;;;8386501;28;19932;-71
2022/01/28 09:13:26;;;;;;;;;;;5.10;99.90;;;;;;8386855;28;19932;-71
2022/01/28 09:17:27;;;;;;;;;;;5.30;99.90;;;;;;8398008;28;19925;-72
2022/01/28 09:21:29;;;;;;;;;;;5.50;99.90;;;;;;8390188;28;19934;-73
2022/01/28 09:25:31;;;;;;;;;;;5.80;99.90;;;;;;8405716;28;19931;-71
2022/01/28 09:29:33;;;;;;;;;;;6.10;99.90;;;;;;8398851;28;20368;-72
2022/01/28 09:33:37;;;;;;;;;;;6.30;99.90;;;;;;8399580;28;20026;-72
2022/01/28 09:37:39;;;;;;;;;;;6.40;99.90;;;;;;8379989;28;19987;-72
2022/01/28 09:41:43;;;;;;;;;;;6.40;99.90;;;;;;8395485;28;19963;-72
2022/01/28 09:45:48;;;;;;;;;;;6.50;99.90;;;;;;8379326;28;19936;-71
2022/01/28 09:49:51;;;;;;;;;;;6.50;99.90;;;;;;8405386;28;19928;-73
2022/01/28 09:53:52;;;;;;;;;;;6.60;99.90;;;;;;8396571;28;19928;-71
2022/01/28 09:57:55;;;;;;;;;;;6.70;99.90;;;;;;8401778;28;19920;-72
2022/01/28 10:01:57;;;;;;;;;;;6.80;99.90;;;;;;8383658;28;19928;-72
2022/01/28 10:05:59;;;;;;;;;;;7.00;99.90;;;;;;8396633;28;19925;-72
2022/01/28 10:10:02;;;;;;;;;;;7.20;99.90;;;;;;8388340;28;19928;-71
2022/01/28 10:14:16;;;;;;;;;;;7.40;99.90;;;;;;8393299;28;19925;-72
2022/01/28 10:18:18;;;;;;;;;;;7.50;99.90;;;;;;8394927;28;19927;-71
2022/01/28 10:22:20;;;;;;;;;;;7.70;99.90;;;;;;8387083;28;19931;-72
2022/01/28 10:26:57;;;;;;;;;;;8.00;99.90;;;;;;8396383;28;19939;-72
2022/01/28 10:31:02;;;;;;;;;;;8.50;99.90;;;;;;8396375;28;20015;-72
2022/01/28 10:35:04;;;;;;;;;;;8.70;99.90;;;;;;8377585;28;19971;-72
2022/01/28 10:39:11;;;;;;;;;;;8.80;99.90;;;;;;8387373;28;19921;-72
2022/01/28 10:43:24;;;;;;;;;;;9.10;99.90;;;;;;8397792;28;19939;-72
2022/01/28 10:47:37;;;;;;;;;;;9.50;99.90;;;;;;8390930;28;21540;-72
2022/01/28 10:51:43;;;;;;;;;;;9.90;99.90;;;;;;8375822;28;20260;-72
2022/01/28 10:55:57;;;;;;;;;;;10.30;99.90;;;;;;8395983;28;19944;-72
2022/01/28 11:00:01;;;;;;;;;;;10.80;99.90;;;;;;8386445;28;19931;-72
2022/01/28 11:04:03;;;;;;;;;;;11.30;99.90;;;;;;8368931;28;20320;-72
2022/01/28 11:08:06;;;;;;;;;;;11.70;99.90;;;;;;8394866;28;20364;-72
2022/01/28 11:12:07;;;;;;;;;;;12.00;99.90;;;;;;8386778;28;20314;-72
2022/01/28 11:16:09;;;;;;;;;;;12.40;99.90;;;;;;8393684;28;19924;-72
2022/01/28 11:20:12;;;;;;;;;;;12.50;99.90;;;;;;8381205;28;19932;-72
2022/01/28 11:24:37;;;;;;;;;;;12.10;99.90;;;;;;8390442;28;19986;-72
2022/01/28 11:28:41;;;;;;;;;;;11.80;99.90;;;;;;8390854;28;19968;-72
2022/01/28 11:33:13;;;;;;;;;;;11.80;99.90;;;;;;8390232;28;19925;-72
2022/01/28 11:37:14;;;;;;;;;;;12.10;99.90;;;;;;8382245;28;19929;-73
2022/01/28 11:41:21;;;;;;;;;;;12.80;99.90;;;;;;8381038;28;19928;-73
2022/01/28 11:45:24;;;;;;;;;;;13.20;99.90;;;;;;8382896;28;19924;-73
2022/01/28 11:49:26;;;;;;;;;;;13.50;99.90;;;;;;8381502;28;20380;-72
2022/01/28 11:53:27;;;;;;;;;;;13.80;99.90;;;;;;8364948;28;19951;-72
2022/01/28 11:57:29;;;;;;;;;;;13.70;99.90;;;;;;8388332;28;20569;-73
2022/01/28 12:01:40;;;;;;;;;;;13.70;99.90;;;;;;8381651;28;19925;-73
2022/01/28 12:05:42;;;;;;;;;;;14.00;99.90;;;;;;8370358;28;19932;-73
2022/01/28 12:09:45;;;;;;;;;;;14.50;99.90;;;;;;8384144;28;20217;-72
2022/01/28 12:14:02;;;;;;;;;;;14.80;99.90;;;;;;8369083;28;20269;-72
2022/01/28 12:18:05;;;;;;;;;;;14.70;99.90;;;;;;8364646;28;20091;-72
2022/01/28 12:22:13;;;;;;;;;;;14.10;99.90;;;;;;8388116;28;19928;-72
2022/01/28 12:26:17;;;;;;;;;;;13.20;99.90;;;;;;8384169;28;19925;-72
2022/01/28 12:30:32;;;;;;;;;;;12.50;99.90;;;;;;8386295;28;19924;-72
2022/01/28 12:34:36;;;;;;;;;;;12.40;99.90;;;;;;8368805;28;19931;-72
2022/01/28 12:38:42;;;;;;;;;;;12.80;99.90;;;;;;8392258;28;19924;-72
2022/01/28 12:42:44;;;;;;;;;;;13.30;99.90;;;;;;8386508;28;19924;-72
2022/01/28 12:46:50;;;;;;;;;;;13.40;99.90;;;;;;8387239;28;20547;-73
2022/01/28 12:50:52;;;;;;;;;;;13.60;99.90;;;;;;8390660;28;19932;-72
2022/01/28 12:54:54;;;;;;;;;;;13.70;99.90;;;;;;8397406;28;20074;-72
2022/01/28 12:58:58;;;;;;;;;;;13.50;99.90;;;;;;8372368;28;19978;-73
2022/01/28 13:03:00;;;;;;;;;;;13.60;99.90;;;;;;8377526;28;20276;-72
2022/01/28 13:11:23;;;;;;;;;;;14.60;99.90;;;;;;8387535;28;20571;-72
2022/01/28 13:15:28;;;;;;;;;;;15.10;99.90;;;;;;8373894;28;19935;-73
2022/01/28 13:19:29;;;;;;;;;;;15.40;99.90;;;;;;8377629;28;19925;-73
2022/01/28 13:23:34;;;;;;;;;;;15.30;99.90;;;;;;8395969;28;19929;-72
2022/01/28 13:27:45;;;;;;;;;;;14.60;99.90;;;;;;8370748;28;19925;-72
2022/01/28 13:31:53;;;;;;;;;;;14.30;99.90;;;;;;8394900;28;19940;-72
2022/01/28 13:35:58;;;;;;;;;;;13.90;99.90;;;;;;8388895;28;19933;-72
2022/01/28 13:40:02;;;;;;;;;;;13.30;99.90;;;;;;8373919;28;19951;-72
2022/01/28 13:44:03;;;;;;;;;;;12.80;99.90;;;;;;8397145;28;19936;-72
2022/01/28 13:48:06;;;;;;;;;;;12.70;99.90;;;;;;8377915;28;19928;-73
2022/01/28 13:52:14;;;;;;;;;;;12.50;99.90;;;;;;8392660;28;20406;-72
2022/01/28 13:56:18;;;;;;;;;;;12.10;99.90;;;;;;8392893;28;19928;-72
2022/01/28 14:00:20;;;;;;;;;;;11.80;99.90;;;;;;8371309;28;19925;-73
2022/01/28 14:04:22;;;;;;;;;;;11.80;99.90;;;;;;8388351;28;20346;-72
2022/01/28 14:08:45;;;;;;;;;;;11.70;99.90;;;;;;8389001;28;20272;-73
2022/01/28 14:12:51;;;;;;;;;;;11.60;99.90;;;;;;8385521;28;19924;-73
2022/01/28 14:16:57;;;;;;;;;;;11.30;99.90;;;;;;8384597;28;20262;-73
2022/01/28 14:20:58;;;;;;;;;;;11.20;99.90;;;;;;8394505;28;19925;-72
2022/01/28 14:25:04;;;;;;;;;;;11.30;99.90;;;;;;8380479;28;20369;-73
2022/01/28 14:33:18;;;;;;;;;;;11.50;99.90;;;;;;8385325;28;19943;-72
2022/01/28 14:37:22;;;;;;;;;;;11.60;99.90;;;;;;8390689;28;20001;-72
2022/01/28 14:41:24;;;;;;;;;;;11.60;99.90;;;;;;8382389;28;19967;-72
2022/01/28 14:45:26;;;;;;;;;;;11.40;99.90;;;;;;8389353;28;19933;-72
2022/01/28 14:49:27;;;;;;;;;;;11.30;99.90;;;;;;8385652;28;19936;-72
2022/01/28 14:53:31;;;;;;;;;;;11.50;99.90;;;;;;8387848;28;19931;-72
2022/01/28 14:57:33;;;;;;;;;;;11.80;99.90;;;;;;8384094;28;19958;-72
2022/01/28 15:01:35;;;;;;;;;;;11.80;99.90;;;;;;8386114;28;19924;-72
2022/01/28 15:05:37;;;;;;;;;;;11.60;99.90;;;;;;8392010;28;20294;-72
2022/01/28 15:09:41;;;;;;;;;;;11.50;99.90;;;;;;8387760;28;19924;-72
2022/01/28 15:13:43;;;;;;;;;;;11.30;99.90;;;;;;8390776;28;19947;-72
2022/01/28 15:17:45;;;;;;;;;;;11.10;99.90;;;;;;8374204;28;20295;-72
2022/01/28 15:21:54;;;;;;;;;;;10.80;99.90;;;;;;8389585;28;19968;-72
2022/01/28 15:25:56;;;;;;;;;;;10.60;99.90;;;;;;8384814;28;20020;-73
2022/01/28 15:30:27;;;;;;;;;;;10.30;99.90;;;;;;8365591;28;19928;-72
2022/01/28 15:38:34;;;;;;;;;;;10.00;99.90;;;;;;8383890;28;19947;-72
2022/01/28 15:42:35;;;;;;;;;;;9.90;99.90;;;;;;8387653;28;19932;-73
2022/01/28 15:46:40;;;;;;;;;;;9.90;99.90;;;;;;8390858;28;20360;-72
2022/01/28 15:50:47;;;;;;;;;;;9.80;99.90;;;;;;8390202;28;19964;-72
2022/01/28 15:54:48;;;;;;;;;;;9.70;99.90;;;;;;8377751;28;19925;-72
2022/01/28 15:58:50;;;;;;;;;;;9.50;99.90;;;;;;8366762;28;20392;-72
2022/01/28 16:02:52;;;;;;;;;;;9.40;99.90;;;;;;8351164;28;19929;-72
2022/01/28 16:06:55;;;;;;;;;;;9.30;99.90;;;;;;8355332;28;19990;-71
2022/01/28 16:19:36;;;;;;;;;;;9.00;99.90;;;;;;8362408;28;19931;-71
2022/01/28 16:23:40;;;;;;;;;;;8.90;99.90;;;;;;8353482;28;20265;-73
2022/01/28 16:27:41;;;;;;;;;;;8.80;99.90;;;;;;8355823;28;19936;-72
2022/01/28 16:31:47;;;;;;;;;;;8.70;99.90;;;;;;8336379;28;20407;-72
2022/01/28 16:35:49;;;;;;;;;;;8.60;99.90;;;;;;8348199;28;19932;-72
2022/01/28 16:39:53;;;;;;;;;;;8.50;99.90;;;;;;8348360;28;19932;-73
2022/01/28 16:44:05;;;;;;;;;;;8.40;99.90;;;;;;8361670;28;19971;-72
2022/01/28 16:48:10;;;;;;;;;;;8.30;99.90;;;;;;8371240;28;19929;-72
2022/01/28 16:52:15;;;;;;;;;;;8.30;99.90;;;;;;8353919;28;19928;-73
2022/01/28 16:56:17;;;;;;;;;;;8.30;99.90;;;;;;8357433;28;19943;-73
2022/01/28 17:00:19;;;;;;;;;;;8.20;99.90;;;;;;8354711;28;20354;-73
2022/01/28 17:04:21;;;;;;;;;;;8.20;99.90;;;;;;8343457;28;19936;-73
2022/01/28 17:08:25;;;;;;;;;;;8.10;99.90;;;;;;8345540;28;19928;-72
2022/01/28 17:16:46;;;;;;;;;;;8.00;99.90;;;;;;8358675;28;19947;-73
2022/01/28 17:20:57;;;;;;;;;;;8.00;99.90;;;;;;8338866;28;20323;-72
2022/01/28 17:24:58;;;;;;;;;;;7.90;99.90;;;;;;8352189;28;19924;-72
2022/01/28 17:29:00;;;;;;;;;;;7.80;99.90;;;;;;8344479;28;21507;-72
2022/01/28 17:33:04;;;;;;;;;;;7.80;99.90;;;;;;8338062;28;19929;-72
2022/01/28 17:37:08;;;;;;;;;;;7.80;99.90;;;;;;8362680;28;19999;-72
2022/01/28 17:41:10;;;;;;;;;;;7.80;99.90;;;;;;8358026;28;20348;-72
2022/01/28 17:45:11;;;;;;;;;;;7.80;99.90;;;;;;8360258;28;20351;-73
2022/01/28 17:49:13;;;;;;;;;;;7.80;99.90;;;;;;8358722;28;20300;-72
2022/01/28 17:53:15;;;;;;;;;;;7.70;99.90;;;;;;8342886;28;20320;-72
2022/01/28 17:57:17;;;;;;;;;;;7.70;99.90;;;;;;8357464;28;19936;-72
2022/01/28 18:01:19;;;;;;;;;;;7.70;99.90;;;;;;8362324;28;20031;-73
2022/01/28 18:05:20;;;;;;;;;;;7.60;99.90;;;;;;8344218;28;20011;-72
2022/01/28 18:09:22;;;;;;;;;;;7.60;99.90;;;;;;8340590;28;19975;-72
2022/01/28 18:13:24;;;;;;;;;;;7.50;99.90;;;;;;8343728;28;19929;-72
2022/01/28 18:17:25;;;;;;;;;;;7.50;99.90;;;;;;8340104;28;19970;-72
2022/01/28 18:21:27;;;;;;;;;;;7.50;99.90;;;;;;8359008;28;19928;-73
2022/01/28 18:25:29;;;;;;;;;;;7.40;99.90;;;;;;8352523;28;19940;-72
2022/01/28 18:29:30;;;;;;;;;;;7.40;99.90;;;;;;8360105;28;19925;-72
2022/01/28 18:33:33;;;;;;;;;;;7.40;99.90;;;;;;8359357;28;19932;-73
2022/01/28 18:37:37;;;;;;;;;;;7.30;99.90;;;;;;8370014;28;19924;-73
2022/01/28 18:41:41;;;;;;;;;;;7.30;99.90;;;;;;8357633;28;20023;-72
2022/01/28 18:45:47;;;;;;;;;;;7.20;99.90;;;;;;8354712;28;19990;-72
2022/01/28 18:49:51;;;;;;;;;;;7.20;99.90;;;;;;8375796;28;19939;-72
2022/01/28 18:53:53;;;;;;;;;;;7.20;99.90;;;;;;8340877;28;20506;-72
2022/01/28 18:57:54;;;;;;;;;;;7.20;99.90;;;;;;8354019;28;19963;-72
2022/01/28 19:01:58;;;;;;;;;;;7.20;99.90;;;;;;8359051;28;19935;-72
2022/01/28 19:06:00;;;;;;;;;;;7.20;99.90;;;;;;8361072;28;19925;-72
2022/01/28 19:10:02;;;;;;;;;;;7.20;99.90;;;;;;8341739;28;19939;-72
2022/01/28 19:14:05;;;;;;;;;;;7.30;99.90;;;;;;8372351;28;20477;-73
2022/01/28 19:18:07;;;;;;;;;;;7.30;99.90;;;;;;8354600;28;20383;-72
2022/01/28 19:22:19;;;;;;;;;;;7.20;99.90;;;;;;8352434;28;19971;-73
2022/01/28 19:26:21;;;;;;;;;;;7.20;99.90;;;;;;8357131;28;19924;-72
2022/01/28 19:30:23;;;;;;;;;;;7.20;99.90;;;;;;8338516;28;19928;-72
2022/01/28 19:34:25;;;;;;;;;;;7.20;99.90;;;;;;8338003;28;20448;-72
2022/01/28 19:38:26;;;;;;;;;;;7.20;99.90;;;;;;8351740;28;19990;-73
2022/01/28 19:42:30;;;;;;;;;;;7.10;99.90;;;;;;8357361;28;19925;-72
2022/01/28 19:46:34;;;;;;;;;;;7.10;99.90;;;;;;8356982;28;19968;-73
2022/01/28 19:50:40;;;;;;;;;;;7.10;99.90;;;;;;8336727;28;19932;-72
2022/01/28 19:54:41;;;;;;;;;;;7.00;99.90;;;;;;8353925;28;19932;-73
2022/01/28 19:58:43;;;;;;;;;;;7.00;99.90;;;;;;8334208;28;20426;-72
2022/01/28 20:02:45;;;;;;;;;;;7.00;99.90;;;;;;8338063;28;20268;-72
2022/01/28 20:06:47;;;;;;;;;;;7.00;99.90;;;;;;8356567;28;20002;-73
2022/01/28 20:10:48;;;;;;;;;;;7.00;99.90;;;;;;8353424;28;20367;-73
2022/01/28 20:14:50;;;;;;;;;;;7.00;99.90;;;;;;8355300;28;19984;-72
2022/01/28 20:18:52;;;;;;;;;;;7.00;99.90;;;;;;8352468;28;20023;-73
2022/01/28 20:22:54;;;;;;;;;;;6.90;99.90;;;;;;8339539;28;19929;-72
2022/01/28 20:26:55;;;;;;;;;;;6.90;99.90;;;;;;8357035;28;19967;-72
2022/01/28 20:30:59;;;;;;;;;;;6.90;99.90;;;;;;8353290;28;19929;-72
2022/01/28 20:35:03;;;;;;;;;;;6.90;99.90;;;;;;8338036;28;19932;-72
2022/01/28 20:39:05;;;;;;;;;;;6.90;99.90;;;;;;8339835;28;19925;-72
2022/01/28 20:43:07;;;;;;;;;;;6.90;99.90;;;;;;8366126;28;19929;-72
2022/01/28 20:47:08;;;;;;;;;;;6.90;99.90;;;;;;8362755;28;19925;-72
2022/01/28 20:51:11;;;;;;;;;;;6.90;99.90;;;;;;8357174;28;24208;-72
2022/01/28 20:55:16;;;;;;;;;;;6.90;99.90;;;;;;8345561;28;19932;-72
2022/01/28 20:59:18;;;;;;;;;;;6.90;99.90;;;;;;8338331;28;20516;-73
2022/01/28 21:03:22;;;;;;;;;;;6.90;99.90;;;;;;8366976;28;19932;-72
2022/01/28 21:07:27;;;;;;;;;;;6.90;99.90;;;;;;8359957;28;19939;-72
2022/01/28 21:11:35;;;;;;;;;;;6.90;99.90;;;;;;8366741;28;19924;-72
2022/01/28 21:15:44;;;;;;;;;;;6.90;99.90;;;;;;8366294;28;19932;-73
2022/01/28 21:19:47;;;;;;;;;;;6.90;99.90;;;;;;8355493;28;19924;-72
2022/01/28 21:23:49;;;;;;;;;;;6.90;99.90;;;;;;8363791;28;19932;-72
2022/01/28 21:27:53;;;;;;;;;;;6.90;99.90;;;;;;8366487;28;19932;-72
2022/01/28 21:31:55;;;;;;;;;;;6.90;99.90;;;;;;8362012;28;21554;-72
2022/01/28 21:35:57;;;;;;;;;;;6.90;99.90;;;;;;8347667;28;19987;-72
2022/01/28 21:39:59;;;;;;;;;;;6.90;99.90;;;;;;8358014;28;19929;-73
2022/01/28 21:44:01;;;;;;;;;;;6.90;99.90;;;;;;8342948;28;19925;-72
2022/01/28 21:48:04;;;;;;;;;;;6.90;99.90;;;;;;8361441;28;19956;-72
2022/01/28 21:52:06;;;;;;;;;;;6.90;99.90;;;;;;8360218;28;19987;-72
2022/01/28 21:56:07;;;;;;;;;;;6.90;99.90;;;;;;8361435;28;19932;-72
2022/01/28 22:00:09;;;;;;;;;;;7.00;99.90;;;;;;8358928;28;19924;-72
2022/01/28 22:04:11;;;;;;;;;;;7.00;99.90;;;;;;8392220;28;19924;-72
2022/01/28 22:08:13;;;;;;;;;;;7.00;99.90;;;;;;8384974;28;19928;-72
2022/01/28 22:12:14;;;;;;;;;;;7.00;99.90;;;;;;8392693;28;19928;-73
2022/01/28 22:16:17;;;;;;;;;;;7.00;99.90;;;;;;8394406;28;19928;-72
2022/01/28 22:20:19;;;;;;;;;;;7.10;99.90;;;;;;8386748;28;20295;-72
2022/01/28 22:24:23;;;;;;;;;;;7.10;99.90;;;;;;8389986;28;19931;-72
2022/01/28 22:28:25;;;;;;;;;;;7.10;99.90;;;;;;8366746;28;19932;-72
2022/01/28 22:32:29;;;;;;;;;;;7.10;99.90;;;;;;8384802;28;19948;-72
2022/01/28 22:36:31;;;;;;;;;;;7.10;99.90;;;;;;8387558;28;19948;-72
2022/01/28 22:40:33;;;;;;;;;;;7.10;99.90;;;;;;8371472;28;20360;-72
2022/01/28 22:44:37;;;;;;;;;;;7.10;99.90;;;;;;8388304;28;20077;-72
2022/01/28 22:48:38;;;;;;;;;;;7.10;99.90;;;;;;8378597;28;19936;-72
2022/01/28 22:52:44;;;;;;;;;;;7.10;99.90;;;;;;8373050;28;19924;-72
2022/01/28 22:56:47;;;;;;;;;;;7.10;99.90;;;;;;8387020;28;19924;-72
2022/01/28 23:00:48;;;;;;;;;;;7.10;99.90;;;;;;8362138;28;19928;-72
2022/01/28 23:04:50;;;;;;;;;;;7.10;99.90;;;;;;8375639;28;19971;-72
2022/01/28 23:08:54;;;;;;;;;;;7.00;99.90;;;;;;8382795;28;19932;-72
2022/01/28 23:12:58;;;;;;;;;;;7.00;99.90;;;;;;8381308;28;19925;-72
2022/01/28 23:17:03;;;;;;;;;;;7.00;99.90;;;;;;8363819;28;19974;-72
2022/01/28 23:21:04;;;;;;;;;;;7.00;99.90;;;;;;8379353;28;19978;-72
2022/01/28 23:25:08;;;;;;;;;;;7.00;99.90;;;;;;8380308;28;20547;-72
2022/01/28 23:29:11;;;;;;;;;;;7.00;99.90;;;;;;8383702;28;19924;-72
2022/01/28 23:33:16;;;;;;;;;;;7.00;99.90;;;;;;8362677;28;19928;-72
2022/01/28 23:37:18;;;;;;;;;;;7.00;99.90;;;;;;8375922;28;19924;-72
2022/01/28 23:41:39;;;;;;;;;;;7.00;99.90;;;;;;8370463;28;19978;-72
2022/01/28 23:45:44;;;;;;;;;;;7.00;99.90;;;;;;8366037;28;19932;-72
2022/01/28 23:49:46;;;;;;;;;;;6.90;99.90;;;;;;8373166;28;20364;-72
2022/01/28 23:53:47;;;;;;;;;;;6.90;99.90;;;;;;8363307;28;19925;-72
2022/01/28 23:57:51;;;;;;;;;;;6.80;99.90;;;;;;8363274;28;19955;-72
